• Join FlightAware (Why Join?)
  • Login
  • US Flag 
02:23AM EDT


 

Airport Tracker/Info


-or-


 

Live Flight TrackerFlight Track Log ✈ EJA922 ✈ 23-Sep-2013 ✈ KOSU - KHPN

Flight Track Log - Related Links

Times and Time Zones

All times are in EDT time to prevent confusion due to time zone crossing. See the EJA922 flight status page for this flight to view local times or setup timezone preferences in your user account.

Time Position Orientation Groundspeed Altitude Reporting Facility
EDT Latitude Longitude Course Direction KTS MPH feet Rate Location/Type
11:52AM 40.0764 -83.0558 54° Northeast 258 297 1,500  Level Indianapolis Center
11:52AM 40.0792 -83.0508 54° Northeast 199 229 1,700 2,400 Climbing Indianapolis Center
11:53AM 40.1164 -82.9911 51° Northeast 209 241 4,200 2,280 Climbing Indianapolis Center
11:53AM 40.1144 -82.9922 204° Southwest 199 229 4,100 2,520 Descending Indianapolis Center
11:54AM 40.1644 -82.9300 44° Northeast 250 288 6,900 2,580 Climbing Indianapolis Center
11:55AM 40.2192 -82.8556 46° Northeast 280 322 9,500 2,400 Climbing Indianapolis Center
11:56AM 40.2833 -82.7711 45° Northeast 308 354 11,900 2,220 Climbing Indianapolis Center
11:57AM 40.3550 -82.6750 46° Northeast 358 412 14,200 2,220 Climbing Indianapolis Center
11:58AM 40.4297 -82.5806 44° Northeast 369 425 16,500 1,920 Climbing Indianapolis Center
11:59AM 40.5333 -82.5364 18° North 382 440 18,200 1,200 Climbing Indianapolis Center
12:00PM 40.6403 -82.4881 19° North 398 458 19,000 360 Climbing Indianapolis Center
12:01PM 40.7572 -82.4356 19° North 434 499 19,000  Level Indianapolis Center
12:02PM 40.8747 -82.3819 19° North 441 507 19,000 60 Level Indianapolis Center
12:03PM 41.0017 -82.2936 28° Northeast 443 510 19,200 1,080 Climbing Indianapolis Center
12:04PM 41.0592 -82.1608 60° Northeast 415 478 21,300 1,560 Climbing Indianapolis Center
12:06PM 41.1122 -82.0239 63° Northeast 413 475 22,600 1,380 Climbing Cleveland Center
12:07PM 41.1675 -81.8808 63° Northeast 427 491 24,300 1,560 Climbing Cleveland Center
12:08PM 41.2219 -81.7378 63° Northeast 433 498 25,800 1,560 Climbing Cleveland Center
12:09PM 41.2925 -81.5558 63° Northeast 455 524 27,600 1,560 Climbing Cleveland Center
12:10PM 41.3514 -81.4025 63° Northeast 465 535 29,100 1,380 Climbing Cleveland Center
12:11PM 41.4061 -81.2567 63° Northeast 473 544 30,500 1,800 Climbing Cleveland Center
12:12PM 41.4775 -81.0692 63° Northeast 481 554 32,900 2,220 Climbing Cleveland Center
12:13PM 41.5383 -80.9103 63° Northeast 479 551 35,100 1,740 Climbing Cleveland Center
12:14PM 41.5989 -80.7481 63° Northeast 482 555 36,500 900 Climbing Cleveland Center
12:15PM 41.6617 -80.5786 64° Northeast 499 574 37,000 240 Climbing Cleveland Center
12:16PM 41.7278 -80.3992 64° Northeast 526 605 37,000  Level Cleveland Center
12:17PM 41.7961 -80.2153 63° Northeast 545 627 37,000  Level Cleveland Center
12:18PM 41.8639 -80.0319 64° Northeast 545 627 37,000  Level Cleveland Center
12:19PM 41.9317 -79.8414 64° Northeast 542 624 37,000  Level Cleveland Center
12:20PM 41.9967 -79.6622 64° Northeast 538 619 37,000  Level Cleveland Center
12:21PM 42.0744 -79.4447 64° Northeast 540 621 37,000  Level Cleveland Center
12:22PM 42.1381 -79.2639 65° Northeast 537 618 37,000  Level Cleveland Center
12:23PM 42.1933 -79.0758 68° East 546 628 37,000  Level Cleveland Center
12:24PM 42.2194 -78.8806 80° East 552 635 37,000  Level Cleveland Center
12:25PM 42.2494 -78.6406 80° East 545 627 37,000  Level Cleveland Center
12:26PM 42.2747 -78.4392 80° East 546 628 37,000  Level Cleveland Center
12:27PM 42.2983 -78.2392 81° East 543 625 37,000  Level Cleveland Center
12:28PM 42.3219 -78.0406 81° East 542 624 37,000 -300 Level Cleveland Center
12:29PM 42.3456 -77.8422 81° East 541 623 36,500 -840 Descending Cleveland Center
12:30PM 42.3719 -77.6083 81° East 536 617 35,300 -1,080 Descending Cleveland Center
12:31PM 42.3936 -77.4131 81° East 535 616 34,300 -1,020 Descending Cleveland Center
12:32PM 42.4156 -77.2164 81° East 535 616 33,300 -660 Descending Cleveland Center
12:33PM 42.4369 -77.0169 82° East 540 621 33,000 -180 Descending Cleveland Center
12:34PM 42.4544 -76.8475 82° East 549 632 33,000  Level Boston Center
12:35PM 42.4769 -76.6436 81° East 544 626 33,000  Level Boston Center
12:36PM 42.4903 -76.4444 85° East 538 619 33,000  Level Boston Center
12:37PM 42.4514 -76.2419 105° East 530 610 33,000 -540 Level Boston Center
12:38PM 42.4100 -76.0425 106° East 541 623 32,000 -1,260 Descending Boston Center
12:39PM 42.3681 -75.8461 106° East 548 631 30,600 -2,040 Descending Boston Center
12:40PM 42.3261 -75.6417 105° East 555 639 27,900 -2,760 Descending Boston Center
12:41PM 42.2892 -75.4658 106° East 550 633 25,100 -2,820 Descending Boston Center
12:42PM 42.2503 -75.2814 106° East 537 618 22,300 -2,820 Descending Boston Center
12:43PM 42.2106 -75.1086 107° East 507 583 19,600 -2,220 Descending Boston Center
12:44PM 42.1706 -74.9417 108° East 481 554 18,000 -840 Descending Boston Center
12:45PM 42.1072 -74.7908 119° Southeast 462 532 18,000 -720 Level Boston Center
12:46PM 42.0375 -74.6206 119° Southeast 467 537 16,600 -1,860 Descending Boston Center
12:47PM 41.9836 -74.4958 120° Southeast 457 526 14,300 -2,160 Descending Boston Center
12:48PM 41.9217 -74.3458 119° Southeast 427 491 12,300 -1,500 Descending Boston Center
12:49PM 41.8694 -74.2244 120° Southeast 422 486 11,400 -720 Descending Boston Center
12:50PM 41.8028 -74.0917 124° Southeast 422 486 11,000 -300 Descending Boston Center
12:51PM 41.7253 -73.9589 128° Southeast 420 483 10,800 -420 Descending Boston Center
12:52PM 41.6300 -73.9203 163° South 395 455 10,200 -660 Descending Boston Center
12:53PM 41.5214 -73.9344 186° South 362 417 9,500 -1,560 Descending Boston Center
12:55PM 41.4000 -73.8333 148° Southeast 276 318 6,000 -1,380 Descending New York TRACON
12:56PM 41.3333 -73.7833 151° Southeast 279 321 5,700 -900 Descending New York TRACON
12:57PM 41.2667 -73.7333 151° Southeast 266 306 4,300 -1,200 Descending New York TRACON
12:58PM 41.2000 -73.6667 143° Southeast 266 306 3,300 -660 Descending New York TRACON
12:59PM 41.1500 -73.6167 143° Southeast 259 298 3,000 -120 Descending New York TRACON
01:00PM 41.0833 -73.5667 151° Southeast 239 275 3,100  Climbing New York TRACON
01:01PM 41.0333 -73.5167 143° Southeast 213 245 3,100 -60 Level New York TRACON
01:02PM 40.9833 -73.5167 180° South 222 255 3,000 -540 Descending New York TRACON
01:03PM 40.9667 -73.5833 252° West 196 226 2,100 -480 Descending New York TRACON
01:04PM 40.9833 -73.6500 288° West 192 221 2,100 -420 Level New York TRACON
01:05PM 41.0167 -73.6667 339° North 138 159 1,400 -780 Descending New York TRACON
01:06PM 41.0500 -73.7000 323° Northwest 122 140 600 -780 Descending New York TRACON
01:08PM 41.0667 -73.7000 301° West  Level FlightAware Approximate